LGMKLGSR

Guest
Details From LGMK - Mikonos
To LGSR - SANTORINI
Flight Number -
Tags generated
Created
Modified
Stats Distance 63 nm / 116 km
Max Altitude 5,200 ft / 1,585 m
Waypoints 3
Social Downloads 4
Likes 0
Share VATSIM

Download

Looking for another format? Having issues loading an existing format? Contact us
Advertisement - Login to hide

Notes

Basic altitude profile: - Ascent Rate: 2500ft/min - Ascent Speed: 250kts - Cruise Altitude: 35000ft - Cruise Speed: 420kts - Descent Rate: 1500ft/min - Descent Speed: 250kts Options: - Use NATs: yes - Use PACOTS: yes - Use low airways: yes - Use high airways: yes

Route

LGMK NITSA LGSR

ID Type Via Altitude Latitude Longitude Leg Dist Tot Dist Heading (true) Name
O LGMK APT - 0 ft / 0 m 37.43539˚ 25.34814˚ - 0 nm - Mikonos
NITSA FIX - 5,200 ft / 1,585 m 37.19083˚ 25.37778˚ 14 nm 14 nm 174° / 175° -
O LGSR APT - 0 ft / 0 m 36.39895˚ 25.47851˚ 47 nm 62 nm 174° / 174° SANTORINI

Altitude Profile

Advertisement - Login to hide

LGMK

Details ICAO LGMK (JMK)
Name Mikonos
Region Greece
Timezone Europe/Athens (UTC+3.0)
Stats Elevation 405 ft / 123 m (AMSL)
Location 37.435385° 25.348138°
Runways 1
Magnetic Variation 4.643° E

METAR

LGMK 251250Z 35019G29KT 9999 FEW020 23/15 Q1010

Decode

TAF

Not found

Departure Runways

ID Width Length Bearing (true) Bearing (mag) Surface Threshold Offset Overrun Length
16 98 ft / 30 m 6,423 ft / 1,958 m 160.63° 155.99° Asphalt 0 ft / 0 m 200 ft / 61 m
34 98 ft / 30 m 6,423 ft / 1,958 m 340.63° 335.99° Asphalt 0 ft / 0 m 200 ft / 61 m

LGSR

Details ICAO LGSR (JTR)
Name SANTORINI
Region Greece
Timezone Europe/Athens (UTC+3.0)
Stats Elevation 127 ft / 39 m (AMSL)
Location 36.398949° 25.478507°
Runways 2
Magnetic Variation 4.554° E

METAR

LGSR 251250Z 33010KT 9999 FEW025 24/15 Q1009 BLU

Decode

TAF

TAF LGSR 251100Z 2512/2612 33020KT 9999 FEW020

Decode

Destination Runways

ID Width Length Bearing (true) Bearing (mag) Surface Threshold Offset Overrun Length
16L 98 ft / 30 m 6,978 ft / 2,127 m 159.53° 154.98° Asphalt 0 ft / 0 m 909 ft / 277 m
16R 98 ft / 30 m 6,969 ft / 2,124 m 159.56° 155.01° Asphalt 0 ft / 0 m 420 ft / 128 m
34L 98 ft / 30 m 6,969 ft / 2,124 m 339.56° 335.01° Asphalt 0 ft / 0 m 0 ft / 0 m
34R 98 ft / 30 m 6,978 ft / 2,127 m 339.54° 334.99° Asphalt 0 ft / 0 m 0 ft / 0 m

Popular Alternatives